Time;durP1;ratioP1;P1;durP2;ratioP2;P2;SDS_P1;SDS_P2;PMS_P1;PMS_P2;Temp;Humidity;BMP_temperature;BMP_pressure;BME280_temperature;BME280_humidity;BME280_pressure;Samples;Min_cycle;Max_cycle;Signal;HPM_P1;HPM_P2
2023/01/15 00:01:30;;;;;;;263.92;131.13;;;1.20;99.90;;;;;;4989465;28;20042;-74
2023/01/15 00:03:59;;;;;;;277.98;133.30;;;1.10;99.90;;;;;;4987638;28;20049;-75
2023/01/15 00:06:27;;;;;;;263.13;132.85;;;1.10;99.90;;;;;;4992458;28;20053;-74
2023/01/15 00:08:57;;;;;;;278.55;136.32;;;1.10;99.90;;;;;;4993714;28;20066;-74
2023/01/15 00:11:24;;;;;;;436.38;170.35;;;1.10;99.90;;;;;;4993512;28;20050;-75
2023/01/15 00:13:52;;;;;;;300.73;143.82;;;1.00;99.90;;;;;;4992799;28;20046;-74
2023/01/15 00:16:22;;;;;;;281.58;136.95;;;1.00;99.90;;;;;;4991811;28;20039;-75
2023/01/15 00:18:51;;;;;;;316.95;148.85;;;0.90;99.90;;;;;;4989412;28;20069;-75
2023/01/15 00:21:20;;;;;;;339.75;160.57;;;0.90;99.90;;;;;;4988549;28;20515;-74
2023/01/15 00:29:21;;;;;;;250.45;133.88;;;0.70;99.90;;;;;;4992966;28;20779;-74
2023/01/15 00:31:55;;;;;;;439.73;160.75;;;0.70;99.90;;;;;;4990855;28;20050;-75
2023/01/15 00:34:22;;;;;;;323.25;126.32;;;0.80;99.90;;;;;;4991432;28;20145;-74
2023/01/15 00:36:50;;;;;;;445.92;162.25;;;0.80;99.90;;;;;;4992177;28;20053;-75
2023/01/15 00:39:17;;;;;;;286.17;127.05;;;0.70;99.90;;;;;;4992771;28;20410;-74
2023/01/15 00:41:48;;;;;;;337.60;130.52;;;0.70;99.90;;;;;;4990781;28;20104;-74
2023/01/15 00:44:17;;;;;;;255.13;118.50;;;0.70;99.90;;;;;;4991856;28;20047;-74
2023/01/15 00:46:44;;;;;;;282.50;125.75;;;0.80;99.90;;;;;;4992045;28;20049;-74
2023/01/15 00:49:12;;;;;;;216.45;111.07;;;0.80;99.90;;;;;;4991037;28;20050;-75
2023/01/15 00:51:39;;;;;;;204.23;105.65;;;0.90;99.90;;;;;;4991820;28;20045;-74
2023/01/15 00:54:07;;;;;;;226.25;104.22;;;0.90;99.90;;;;;;4990802;28;20051;-75
2023/01/15 00:56:35;;;;;;;214.25;102.63;;;0.90;99.90;;;;;;4992632;28;20050;-74
2023/01/15 00:59:05;;;;;;;185.32;98.05;;;0.90;99.90;;;;;;4991073;28;20051;-74
2023/01/15 01:01:33;;;;;;;213.60;105.47;;;0.90;99.90;;;;;;4990343;28;20047;-74
2023/01/15 01:04:01;;;;;;;206.13;101.35;;;1.00;99.90;;;;;;4991787;28;20042;-75
2023/01/15 01:06:28;;;;;;;220.20;105.07;;;1.00;99.90;;;;;;4991577;28;20046;-75
2023/01/15 01:08:56;;;;;;;202.80;101.97;;;0.80;99.90;;;;;;4992372;28;20108;-74
2023/01/15 01:11:25;;;;;;;196.63;96.88;;;0.80;99.90;;;;;;4991693;28;20065;-75
2023/01/15 01:13:54;;;;;;;201.00;103.53;;;0.80;99.90;;;;;;4995707;28;20508;-75
2023/01/15 01:16:29;;;;;;;182.57;96.28;;;0.70;99.90;;;;;;4992622;28;20450;-75
2023/01/15 01:18:57;;;;;;;254.25;111.43;;;0.80;99.90;;;;;;4992131;28;20061;-74
2023/01/15 01:21:25;;;;;;;225.57;109.82;;;0.70;99.90;;;;;;4992060;28;20122;-74
2023/01/15 01:23:52;;;;;;;277.30;115.82;;;0.70;99.90;;;;;;4991197;28;20050;-75
2023/01/15 01:26:20;;;;;;;232.32;103.13;;;0.70;99.90;;;;;;4989888;28;20050;-75
2023/01/15 01:28:52;;;;;;;242.85;108.20;;;0.70;99.90;;;;;;4991783;28;20062;-74
2023/01/15 01:31:20;;;;;;;277.80;118.03;;;0.70;99.90;;;;;;4989120;28;20046;-74
2023/01/15 01:33:51;;;;;;;217.48;106.75;;;0.60;99.90;;;;;;4989240;28;20050;-74
2023/01/15 01:36:19;;;;;;;166.25;87.68;;;0.70;99.90;;;;;;4990954;28;20379;-74
2023/01/15 01:38:49;;;;;;;169.02;91.60;;;0.70;99.90;;;;;;4990274;28;20034;-73
2023/01/15 01:41:17;;;;;;;225.93;110.47;;;0.70;99.90;;;;;;4989876;28;20088;-74
2023/01/15 01:43:54;;;;;;;186.18;101.47;;;0.60;99.90;;;;;;4991719;28;20069;-74
2023/01/15 01:46:21;;;;;;;183.85;99.82;;;0.60;99.90;;;;;;4989515;28;20141;-74
2023/01/15 01:48:52;;;;;;;171.60;93.53;;;0.50;99.90;;;;;;4991360;28;20050;-74
2023/01/15 01:51:22;;;;;;;182.02;98.28;;;0.50;99.90;;;;;;4989443;28;20138;-74
2023/01/15 01:53:50;;;;;;;145.93;87.25;;;0.40;99.90;;;;;;4990060;28;20131;-73
2023/01/15 01:56:18;;;;;;;189.52;95.00;;;0.30;99.90;;;;;;4990952;28;20353;-74
2023/01/15 01:58:48;;;;;;;164.90;92.65;;;0.20;99.90;;;;;;4989603;28;20042;-73
2023/01/15 02:01:17;;;;;;;168.52;90.18;;;0.20;99.90;;;;;;4989189;28;20498;-74
2023/01/15 02:03:45;;;;;;;154.98;82.80;;;0.20;99.90;;;;;;4990362;28;20053;-74
2023/01/15 02:06:15;;;;;;;142.57;75.72;;;0.20;99.90;;;;;;4990472;28;20133;-74
2023/01/15 02:08:42;;;;;;;140.52;76.20;;;0.20;99.90;;;;;;4990258;28;20038;-74
2023/01/15 02:11:17;;;;;;;141.88;79.30;;;0.20;99.90;;;;;;4987992;28;20052;-75
2023/01/15 02:13:55;;;;;;;137.40;81.47;;;0.20;99.90;;;;;;4990426;28;20034;-75
2023/01/15 02:16:25;;;;;;;144.13;76.78;;;0.20;99.90;;;;;;4990260;28;20129;-74
2023/01/15 02:19:00;;;;;;;145.73;74.03;;;0.20;99.90;;;;;;4988834;28;20042;-74
2023/01/15 02:21:44;;;;;;;114.00;67.57;;;0.20;99.90;;;;;;4990688;28;20383;-73
2023/01/15 02:24:17;;;;;;;135.98;73.75;;;0.20;99.90;;;;;;5004860;28;20050;-74
2023/01/15 02:27:02;;;;;;;122.95;68.03;;;0.20;99.90;;;;;;4988869;28;20042;-74
2023/01/15 02:29:40;;;;;;;115.78;68.03;;;0.20;99.90;;;;;;4988897;28;20053;-75
2023/01/15 02:32:15;;;;;;;121.05;65.55;;;0.30;99.90;;;;;;4988865;28;20098;-74
2023/01/15 02:34:50;;;;;;;156.15;80.18;;;0.40;99.90;;;;;;4988236;28;20137;-75
2023/01/15 02:37:24;;;;;;;140.20;77.05;;;0.40;99.90;;;;;;4988647;28;20109;-74
2023/01/15 02:39:55;;;;;;;129.38;69.57;;;0.40;99.90;;;;;;5004539;28;20050;-74
2023/01/15 02:42:27;;;;;;;138.70;70.55;;;0.40;99.90;;;;;;4987722;28;20502;-74
2023/01/15 02:44:58;;;;;;;131.20;67.15;;;0.40;99.90;;;;;;4988421;28;20063;-74
2023/01/15 02:47:29;;;;;;;146.50;72.28;;;0.30;99.90;;;;;;4988101;28;20506;-74
2023/01/15 02:50:01;;;;;;;143.50;72.70;;;0.40;99.90;;;;;;4987573;28;20050;-74
2023/01/15 02:52:41;;;;;;;161.48;82.10;;;0.40;99.90;;;;;;4989564;28;20050;-73
2023/01/15 02:55:12;;;;;;;157.68;80.15;;;0.40;99.90;;;;;;4988674;28;20048;-74
2023/01/15 02:57:47;;;;;;;164.82;81.93;;;0.30;99.90;;;;;;4989118;28;20042;-76
2023/01/15 03:00:21;;;;;;;170.25;86.20;;;0.30;99.90;;;;;;4988361;28;20113;-73
2023/01/15 03:02:56;;;;;;;186.98;92.25;;;0.20;99.90;;;;;;4988728;28;20135;-74
2023/01/15 03:05:27;;;;;;;180.80;85.05;;;0.10;99.90;;;;;;4988186;28;20323;-75
2023/01/15 03:07:57;;;;;;;157.43;80.30;;;0.10;99.90;;;;;;4988908;28;20047;-75
2023/01/15 03:10:36;;;;;;;146.50;76.40;;;0.00;99.90;;;;;;4988182;28;20046;-75
2023/01/15 03:13:07;;;;;;;138.05;74.75;;;0.10;99.90;;;;;;4988583;28;20046;-77
2023/01/15 03:18:42;;;;;;;168.60;84.35;;;0.00;99.90;;;;;;4988981;28;20053;-74
2023/01/15 03:21:13;;;;;;;143.07;77.43;;;0.00;99.90;;;;;;4986998;28;20137;-73
2023/01/15 03:23:46;;;;;;;149.88;78.78;;;0.00;99.90;;;;;;4988132;28;20077;-73
2023/01/15 03:26:14;;;;;;;156.00;80.13;;;0.10;99.90;;;;;;4988719;28;20093;-73
2023/01/15 03:28:45;;;;;;;168.02;89.32;;;0.00;99.90;;;;;;4988664;28;20054;-74
2023/01/15 03:31:13;;;;;;;156.35;88.65;;;0.00;99.90;;;;;;4989521;28;20042;-73
2023/01/15 03:33:41;;;;;;;185.27;102.78;;;0.00;99.90;;;;;;4988412;28;20137;-74
2023/01/15 03:36:14;;;;;;;185.90;102.95;;;-0.10;99.90;;;;;;4988595;28;20282;-74
2023/01/15 03:38:50;;;;;;;173.40;97.30;;;-0.20;99.90;;;;;;4988147;28;20054;-74
2023/01/15 03:41:45;;;;;;;180.45;97.60;;;-0.30;99.90;;;;;;4989954;28;20049;-75
2023/01/15 03:44:23;;;;;;;163.45;92.80;;;-0.30;99.90;;;;;;4989085;28;20055;-75
2023/01/15 03:47:04;;;;;;;163.98;94.05;;;-0.40;99.90;;;;;;4991864;28;20337;-75
2023/01/15 03:49:47;;;;;;;160.45;92.40;;;-0.40;99.90;;;;;;4996502;28;20101;-73
2023/01/15 03:52:42;;;;;;;139.40;81.78;;;-0.50;99.90;;;;;;4993397;28;20049;-74
2023/01/15 03:55:14;;;;;;;134.23;80.15;;;-0.50;99.90;;;;;;4988552;28;20140;-74
2023/01/15 03:57:51;;;;;;;136.80;82.15;;;-0.50;99.90;;;;;;4988465;28;20050;-75
2023/01/15 04:00:25;;;;;;;136.18;79.65;;;-0.50;99.90;;;;;;4988172;28;20145;-73
2023/01/15 04:02:59;;;;;;;146.73;85.03;;;-0.60;99.90;;;;;;4991032;28;20612;-74
2023/01/15 04:05:31;;;;;;;163.98;93.30;;;-0.60;99.90;;;;;;5006964;28;20054;-74
2023/01/15 04:07:59;;;;;;;160.55;88.15;;;-0.70;99.90;;;;;;4991749;28;20053;-74
2023/01/15 04:10:28;;;;;;;143.70;82.72;;;-0.70;99.90;;;;;;4991637;28;20097;-74
2023/01/15 04:12:58;;;;;;;149.48;85.13;;;-0.70;99.90;;;;;;4991351;28;20050;-74
2023/01/15 04:15:27;;;;;;;145.38;83.50;;;-0.70;99.90;;;;;;4991211;28;20141;-73
2023/01/15 04:17:54;;;;;;;138.20;80.80;;;-0.70;99.90;;;;;;4991035;28;20133;-74
2023/01/15 04:20:24;;;;;;;136.38;76.82;;;-0.60;99.90;;;;;;4990849;28;20058;-74
2023/01/15 04:22:51;;;;;;;144.50;77.45;;;-0.60;99.90;;;;;;4991562;28;20054;-74
2023/01/15 04:25:19;;;;;;;155.73;85.32;;;-0.60;99.90;;;;;;4992688;28;20043;-74
2023/01/15 04:27:46;;;;;;;142.50;77.95;;;-0.60;99.90;;;;;;4992491;28;20822;-74
2023/01/15 04:30:16;;;;;;;150.95;84.38;;;-0.60;99.90;;;;;;4991998;28;20042;-73
2023/01/15 04:32:48;;;;;;;149.88;85.35;;;-0.60;99.90;;;;;;4992708;28;20053;-73
2023/01/15 04:35:16;;;;;;;143.88;84.15;;;-0.60;99.90;;;;;;4991179;28;20050;-74
2023/01/15 04:37:43;;;;;;;120.72;70.93;;;-0.60;99.90;;;;;;4992238;28;20042;-74
2023/01/15 04:44:05;;;;;;;113.00;67.55;;;-0.60;99.90;;;;;;4990727;28;20490;-74
2023/01/15 04:45:44;;;;;;;112.65;67.05;;;-0.50;99.90;;;;;;5000584;28;20106;-73
2023/01/15 04:48:13;;;;;;;122.63;73.35;;;-0.60;99.90;;;;;;4995575;28;20050;-73
2023/01/15 04:50:40;;;;;;;119.43;69.78;;;-0.60;99.90;;;;;;4991763;28;20046;-74
2023/01/15 04:53:08;;;;;;;127.63;73.15;;;-0.70;99.90;;;;;;4992747;28;20038;-73
2023/01/15 04:55:35;;;;;;;114.63;67.53;;;-0.70;99.90;;;;;;4991818;28;20049;-74
2023/01/15 04:58:03;;;;;;;114.72;68.07;;;-0.70;99.90;;;;;;4991748;28;20052;-74
2023/01/15 05:00:30;;;;;;;112.25;66.93;;;-0.70;99.90;;;;;;4991720;28;20042;-75
2023/01/15 05:02:57;;;;;;;113.00;65.95;;;-0.70;99.90;;;;;;4992266;28;20042;-74
2023/01/15 05:05:26;;;;;;;107.75;63.33;;;-0.70;99.90;;;;;;4990878;28;20038;-73
2023/01/15 05:07:54;;;;;;;109.18;67.85;;;-0.70;99.90;;;;;;5000706;28;20049;-74
2023/01/15 05:10:21;;;;;;;111.45;66.00;;;-0.70;99.90;;;;;;5002549;28;20046;-74
2023/01/15 05:12:49;;;;;;;116.82;69.75;;;-0.70;99.90;;;;;;5001711;28;20046;-73
2023/01/15 05:15:16;;;;;;;104.65;63.72;;;-0.80;99.90;;;;;;4992272;28;20049;-74
2023/01/15 05:17:43;;;;;;;97.07;58.08;;;-0.70;99.90;;;;;;4991707;28;20041;-73
2023/01/15 05:20:13;;;;;;;101.15;60.25;;;-0.70;99.90;;;;;;4991656;28;20047;-75
2023/01/15 05:22:43;;;;;;;103.20;57.58;;;-0.80;99.90;;;;;;4992447;28;20038;-74
2023/01/15 05:25:11;;;;;;;113.13;66.65;;;-0.70;99.90;;;;;;4992805;28;20050;-73
2023/01/15 05:27:38;;;;;;;129.52;76.68;;;-0.70;99.90;;;;;;4992378;28;20049;-73
2023/01/15 05:30:07;;;;;;;122.72;73.45;;;-0.70;99.90;;;;;;4990796;28;21617;-74
2023/01/15 05:32:35;;;;;;;133.00;76.28;;;-0.70;99.90;;;;;;4991401;28;20051;-74
2023/01/15 05:35:02;;;;;;;119.90;72.43;;;-0.70;99.90;;;;;;4991991;28;20050;-75
2023/01/15 05:37:30;;;;;;;126.25;75.50;;;-0.70;23.10;;;;;;4992181;28;20035;-73
2023/01/15 05:39:59;;;;;;;135.98;77.50;;;-0.70;1.00;;;;;;4990632;28;20486;-73
2023/01/15 05:42:26;;;;;;;131.77;76.65;;;-0.80;1.00;;;;;;4991438;28;20516;-74
2023/01/15 05:44:53;;;;;;;146.07;81.88;;;-0.70;1.00;;;;;;4991061;28;20485;-74
2023/01/15 05:47:21;;;;;;;137.55;82.68;;;-0.80;1.00;;;;;;4991374;28;20052;-74
2023/01/15 05:49:49;;;;;;;135.50;76.35;;;-0.80;99.90;;;;;;4990276;28;20046;-73
2023/01/15 05:52:16;;;;;;;131.35;80.45;;;-0.80;1.00;;;;;;4991320;28;20059;-74
2023/01/15 05:54:43;;;;;;;131.63;81.05;;;-0.90;1.00;;;;;;4989546;28;20046;-73
2023/01/15 05:57:13;;;;;;;132.68;78.75;;;-0.90;1.00;;;;;;4991118;28;20053;-74
2023/01/15 05:59:41;;;;;;;124.13;76.28;;;-1.00;1.00;;;;;;4990358;28;20449;-74
2023/01/15 06:02:08;;;;;;;130.15;79.57;;;-0.90;1.00;;;;;;4990136;28;20121;-75
2023/01/15 06:04:35;;;;;;;143.82;86.65;;;-0.90;68.30;;;;;;4990739;28;20046;-74
2023/01/15 06:07:03;;;;;;;152.23;92.90;;;-0.90;1.00;;;;;;4990755;28;20410;-74
2023/01/15 06:09:30;;;;;;;148.50;89.07;;;-1.00;1.00;;;;;;4989091;28;20414;-74
2023/01/15 06:11:58;;;;;;;129.60;79.25;;;-1.00;1.00;;;;;;4990448;28;20057;-74
2023/01/15 06:14:27;;;;;;;119.85;75.65;;;-1.00;1.00;;;;;;4989955;28;20042;-74
2023/01/15 06:16:54;;;;;;;122.93;77.45;;;-1.10;1.00;;;;;;4990893;28;20050;-73
2023/01/15 06:19:21;;;;;;;110.82;68.60;;;-1.10;1.00;;;;;;4991569;28;20046;-74
2023/01/15 06:21:49;;;;;;;99.90;63.83;;;-1.10;1.00;;;;;;4992173;28;20055;-75
2023/01/15 06:24:17;;;;;;;97.82;61.30;;;-1.10;99.90;;;;;;4994767;28;20046;-73
2023/01/15 06:26:44;;;;;;;97.40;62.63;;;-1.10;1.00;;;;;;4991178;28;20121;-74
2023/01/15 06:29:12;;;;;;;103.70;64.10;;;-1.10;99.90;;;;;;4992809;28;20038;-75
2023/01/15 06:31:41;;;;;;;104.85;64.03;;;-1.10;1.00;;;;;;4993089;28;20112;-75
2023/01/15 06:34:10;;;;;;;104.47;68.25;;;-1.10;1.00;;;;;;4993409;28;20046;-75
2023/01/15 06:36:37;;;;;;;101.47;63.92;;;-1.00;1.00;;;;;;4993032;28;20038;-74
2023/01/15 06:39:04;;;;;;;109.40;67.10;;;-1.00;99.90;;;;;;4992918;28;20050;-74
2023/01/15 06:47:23;;;;;;;105.53;64.85;;;-1.00;99.90;;;;;;4948497;29;20035;-74
2023/01/15 06:49:52;;;;;;;105.30;65.90;;;-1.00;99.90;;;;;;4973326;28;20088;-74
2023/01/15 06:52:19;;;;;;;107.38;65.72;;;-1.00;99.90;;;;;;4990501;28;20129;-73
2023/01/15 06:54:48;;;;;;;100.50;64.88;;;-1.00;1.00;;;;;;4990186;28;20069;-73
2023/01/15 06:57:17;;;;;;;101.57;65.28;;;-0.90;1.00;;;;;;4990043;28;20498;-73
2023/01/15 06:59:45;;;;;;;103.93;64.78;;;-0.80;1.00;;;;;;4989032;28;20054;-74
2023/01/15 07:02:12;;;;;;;105.78;67.45;;;-0.80;1.00;;;;;;4989425;28;20045;-74
2023/01/15 07:04:41;;;;;;;92.40;60.67;;;-0.70;99.90;;;;;;4989622;28;20038;-74
2023/01/15 07:07:08;;;;;;;111.35;70.40;;;-0.70;1.00;;;;;;4989707;28;20056;-73
2023/01/15 07:09:36;;;;;;;110.88;68.47;;;-0.60;93.50;;;;;;4990001;28;20118;-73
2023/01/15 07:12:03;;;;;;;118.75;72.53;;;-0.80;1.00;;;;;;4988893;28;20050;-74
2023/01/15 07:14:31;;;;;;;112.53;68.32;;;-0.80;1.00;;;;;;4989447;28;20034;-74
2023/01/15 07:16:59;;;;;;;111.28;68.57;;;-0.70;1.00;;;;;;4987779;28;20042;-74
2023/01/15 07:19:27;;;;;;;123.53;76.18;;;-0.60;1.00;;;;;;4989104;28;20053;-73
2023/01/15 07:21:56;;;;;;;123.43;75.20;;;-0.50;1.00;;;;;;4988468;28;20061;-74
2023/01/15 07:24:23;;;;;;;133.18;82.38;;;-0.30;1.00;;;;;;4992084;28;20046;-72
2023/01/15 07:26:51;;;;;;;124.05;78.88;;;-0.20;1.00;;;;;;4993802;28;20043;-73
2023/01/15 07:29:18;;;;;;;139.90;85.90;;;-0.10;99.90;;;;;;4989600;28;20488;-73
2023/01/15 07:31:46;;;;;;;148.38;87.43;;;0.00;1.00;;;;;;4988629;28;20458;-74
2023/01/15 07:34:13;;;;;;;148.93;91.68;;;0.00;99.90;;;;;;4990194;28;20501;-73
2023/01/15 07:36:41;;;;;;;153.32;94.47;;;-0.10;1.00;;;;;;4993547;28;20509;-73
2023/01/15 07:39:11;;;;;;;152.35;95.43;;;0.10;1.00;;;;;;4993528;28;20038;-74
2023/01/15 07:50:02;;;;;;;131.38;78.65;;;0.70;99.90;;;;;;4992280;28;20046;-73
2023/01/15 07:52:30;;;;;;;148.30;84.45;;;0.80;1.00;;;;;;4993498;28;20042;-73
2023/01/15 07:54:59;;;;;;;227.38;118.05;;;0.90;1.00;;;;;;4992198;28;20049;-74
2023/01/15 07:57:27;;;;;;;202.32;110.88;;;1.00;1.00;;;;;;4993234;28;20126;-74
2023/01/15 07:59:55;;;;;;;193.50;108.43;;;1.10;1.00;;;;;;4992425;28;20077;-74
2023/01/15 08:02:22;;;;;;;188.65;107.72;;;1.30;1.00;;;;;;4993905;28;20050;-74
2023/01/15 08:04:50;;;;;;;191.88;109.22;;;1.40;1.00;;;;;;4995611;28;20058;-73
2023/01/15 08:07:17;;;;;;;155.98;90.53;;;1.60;1.00;;;;;;4992694;28;20034;-73
2023/01/15 08:09:45;;;;;;;166.60;98.68;;;1.80;99.90;;;;;;4991890;28;20125;-73
2023/01/15 08:15:13;;;;;;;;;;;2.10;91.00;;;;;;4991996;28;20046;-74
2023/01/15 08:17:42;;;;;;;137.95;84.60;;;2.30;1.00;;;;;;4989393;28;20369;-73
2023/01/15 08:20:12;;;;;;;149.68;89.30;;;2.50;1.00;;;;;;4991024;28;20041;-72
2023/01/15 08:22:40;;;;;;;144.02;87.45;;;2.60;99.90;;;;;;5037737;23;20026;-77
2023/01/15 08:25:10;;;;;;;146.60;89.25;;;2.60;98.30;;;;;;5017754;28;20049;-75
2023/01/15 08:27:39;;;;;;;146.85;85.95;;;2.60;99.90;;;;;;5015282;28;20138;-76
2023/01/15 08:30:09;;;;;;;168.98;93.65;;;2.70;99.90;;;;;;5015590;28;20066;-77
2023/01/15 08:32:36;;;;;;;163.20;95.15;;;2.90;99.90;;;;;;5018430;28;20551;-75
2023/01/15 08:35:04;;;;;;;155.65;92.45;;;3.10;99.90;;;;;;5017605;28;20148;-75
2023/01/15 08:37:32;;;;;;;154.70;91.30;;;3.20;99.90;;;;;;5015891;28;20341;-74
2023/01/15 08:39:59;;;;;;;125.28;75.97;;;3.30;99.90;;;;;;5001874;28;20060;-76
2023/01/15 08:42:27;;;;;;;119.05;74.50;;;3.30;99.90;;;;;;5020866;28;20046;-75
2023/01/15 08:44:56;;;;;;;131.15;78.57;;;3.40;99.90;;;;;;5026691;28;20105;-74
2023/01/15 08:47:25;;;;;;;120.65;74.13;;;3.50;1.00;;;;;;5025071;28;20054;-76
2023/01/15 08:49:54;;;;;;;127.93;77.70;;;3.50;1.00;;;;;;5001537;28;20042;-74
2023/01/15 08:52:22;;;;;;;122.80;78.35;;;3.60;1.00;;;;;;5015712;28;20522;-74
2023/01/15 08:54:49;;;;;;;164.20;103.55;;;3.70;1.00;;;;;;5007727;28;20077;-73
2023/01/15 08:57:17;;;;;;;158.57;101.28;;;3.70;1.00;;;;;;5026546;28;20069;-77
2023/01/15 08:59:44;;;;;;;154.65;95.55;;;3.70;1.00;;;;;;5020989;28;20073;-74
2023/01/15 09:02:16;;;;;;;183.30;123.57;;;3.70;1.00;;;;;;5027192;28;20038;-77
2023/01/15 09:04:43;;;;;;;198.25;129.75;;;3.80;1.00;;;;;;5030721;28;20050;-77
2023/01/15 09:07:11;;;;;;;166.38;108.18;;;3.90;1.00;;;;;;5011810;28;20113;-76
2023/01/15 09:09:39;;;;;;;231.90;142.68;;;4.00;1.00;;;;;;5004149;28;20069;-75
2023/01/15 09:12:07;;;;;;;238.40;146.38;;;4.00;1.00;;;;;;5002092;28;20042;-76
2023/01/15 09:14:35;;;;;;;236.18;149.55;;;4.00;1.00;;;;;;5009564;28;20080;-77
2023/01/15 09:17:05;;;;;;;206.02;132.77;;;4.00;99.90;;;;;;5028357;28;20053;-76
2023/01/15 09:19:35;;;;;;;221.23;137.65;;;4.10;5.80;;;;;;5027130;28;20098;-76
2023/01/15 09:22:03;;;;;;;195.18;126.15;;;4.20;99.90;;;;;;5012532;28;20107;-75
2023/01/15 09:24:31;;;;;;;177.07;113.10;;;4.30;99.90;;;;;;5014067;28;20069;-76
2023/01/15 09:26:58;;;;;;;154.75;98.22;;;4.30;99.90;;;;;;5012330;28;20038;-77
2023/01/15 09:29:25;;;;;;;163.80;100.55;;;4.40;99.90;;;;;;5003553;28;20038;-76
2023/01/15 09:31:53;;;;;;;155.35;98.40;;;4.60;99.90;;;;;;4996499;28;20077;-78
2023/01/15 09:34:20;;;;;;;163.30;100.03;;;4.60;1.00;;;;;;5004127;28;20042;-75
2023/01/15 09:36:50;;;;;;;159.82;98.32;;;4.70;99.90;;;;;;5010707;28;20062;-76
2023/01/15 09:39:17;;;;;;;153.25;96.13;;;4.80;1.00;;;;;;4997020;28;20054;-80
2023/01/15 09:42:06;;;;;;;159.20;100.32;;;4.90;1.00;;;;;;4990826;28;20038;-77
2023/01/15 09:44:45;;;;;;;152.60;97.55;;;4.90;1.00;;;;;;4991787;28;20034;-75
2023/01/15 09:47:19;;;;;;;150.25;96.18;;;5.10;1.00;;;;;;4994323;28;20045;-76
2023/01/15 09:50:15;;;;;;;142.23;87.38;;;5.20;1.00;;;;;;4991924;28;20077;-79
2023/01/15 09:53:03;;;;;;;141.63;87.65;;;5.30;1.00;;;;;;5000469;28;20074;-78
2023/01/15 09:55:33;;;;;;;135.35;83.20;;;5.50;1.00;;;;;;4995126;28;20042;-78
2023/01/15 09:58:04;;;;;;;140.95;85.45;;;5.60;1.00;;;;;;4990141;28;20138;-76
2023/01/15 10:00:38;;;;;;;136.25;81.57;;;5.70;1.00;;;;;;4992167;28;20498;-77
2023/01/15 10:03:18;;;;;;;132.98;84.03;;;5.90;99.90;;;;;;4992743;28;20049;-77
2023/01/15 10:05:52;;;;;;;139.48;85.45;;;6.10;99.90;;;;;;4991190;28;20058;-77
2023/01/15 10:08:24;;;;;;;138.88;88.07;;;6.20;99.90;;;;;;4993211;28;20125;-79
2023/01/15 10:10:57;;;;;;;142.25;89.18;;;6.30;99.90;;;;;;4992327;28;20422;-76
2023/01/15 10:13:31;;;;;;;160.40;98.53;;;6.40;99.90;;;;;;4994939;28;20034;-74
2023/01/15 10:15:59;;;;;;;156.20;99.45;;;6.50;99.90;;;;;;4994482;28;20413;-75
2023/01/15 10:18:28;;;;;;;148.43;96.20;;;6.60;99.90;;;;;;4992730;28;20043;-76
2023/01/15 10:21:12;;;;;;;146.57;92.55;;;6.70;99.90;;;;;;4993307;28;20038;-76
2023/01/15 10:23:51;;;;;;;162.65;100.78;;;6.90;1.00;;;;;;5011988;28;20046;-78
2023/01/15 10:26:31;;;;;;;161.27;98.47;;;7.00;1.00;;;;;;5010810;28;20042;-75
2023/01/15 10:29:02;;;;;;;157.02;99.05;;;7.20;1.00;;;;;;5010575;28;20065;-77
2023/01/15 10:31:48;;;;;;;159.02;98.72;;;7.30;1.00;;;;;;5009836;28;20060;-76
2023/01/15 10:34:45;;;;;;;159.55;102.40;;;7.40;1.00;;;;;;5015305;28;20057;-76
2023/01/15 10:37:16;;;;;;;170.70;108.25;;;7.60;1.00;;;;;;5031339;28;20056;-74
2023/01/15 10:39:52;;;;;;;164.52;102.57;;;7.70;1.00;;;;;;5029719;28;20450;-79
2023/01/15 10:42:32;;;;;;;162.00;104.97;;;7.80;1.00;;;;;;5015048;28;20077;-75
2023/01/15 10:45:04;;;;;;;164.60;100.90;;;7.90;99.90;;;;;;5010107;28;20065;-77
2023/01/15 10:47:38;;;;;;;154.07;99.07;;;7.90;99.90;;;;;;5010903;28;20046;-76
2023/01/15 10:50:16;;;;;;;139.48;90.00;;;8.00;99.90;;;;;;5014472;28;20044;-74
2023/01/15 10:52:48;;;;;;;140.73;90.75;;;8.10;99.90;;;;;;5016366;28;20060;-77
2023/01/15 10:55:23;;;;;;;128.73;83.43;;;8.20;99.90;;;;;;5012228;28;20045;-76
2023/01/15 10:57:58;;;;;;;135.15;83.25;;;8.30;99.90;;;;;;5012268;28;20061;-77
2023/01/15 11:00:26;;;;;;;121.15;77.20;;;8.40;99.90;;;;;;4994077;28;20833;-76
2023/01/15 11:03:03;;;;;;;128.90;81.50;;;8.50;92.30;;;;;;5011092;28;20265;-78
2023/01/15 11:05:33;;;;;;;101.68;67.22;;;8.70;68.60;;;;;;5011451;28;20065;-74
2023/01/15 11:08:05;;;;;;;101.20;63.47;;;8.80;1.00;;;;;;4994839;28;20136;-78
2023/01/15 11:10:34;;;;;;;93.45;61.00;;;9.00;1.00;;;;;;5010258;28;20154;-78
2023/01/15 11:21:33;;;;;;;103.20;65.18;;;9.50;1.00;;;;;;5011367;28;20431;-77
2023/01/15 11:24:01;;;;;;;97.95;63.38;;;9.60;1.00;;;;;;5011895;28;20038;-75
2023/01/15 11:26:32;;;;;;;99.07;63.97;;;9.70;1.00;;;;;;4992751;28;20065;-75
2023/01/15 11:29:12;;;;;;;96.70;61.25;;;9.80;1.00;;;;;;5011918;28;20041;-75
2023/01/15 11:31:40;;;;;;;99.13;59.17;;;9.80;1.00;;;;;;5014466;28;20042;-74
2023/01/15 11:34:19;;;;;;;85.28;56.10;;;9.90;1.00;;;;;;5023831;28;20038;-76
2023/01/15 11:36:47;;;;;;;85.30;57.13;;;10.00;1.00;;;;;;5024009;28;20042;-75
2023/01/15 11:39:26;;;;;;;94.72;59.00;;;10.00;1.00;;;;;;5022004;28;20128;-76
2023/01/15 11:50:46;;;;;;;94.10;59.58;;;10.40;1.00;;;;;;5013921;28;20042;-78
2023/01/15 11:53:22;;;;;;;93.07;55.75;;;10.50;1.00;;;;;;5011943;28;20046;-77
2023/01/15 11:56:03;;;;;;;93.47;59.10;;;10.50;1.00;;;;;;5016674;28;20050;-76
2023/01/15 11:58:46;;;;;;;103.55;64.07;;;10.60;1.00;;;;;;5015925;28;20060;-77
2023/01/15 12:01:21;;;;;;;100.10;64.47;;;10.70;1.00;;;;;;5026136;28;20049;-77
2023/01/15 12:03:48;;;;;;;101.55;62.53;;;10.70;1.00;;;;;;5027065;28;20159;-75
2023/01/15 12:06:19;;;;;;;116.15;72.45;;;10.80;1.00;;;;;;5020990;28;20072;-76
2023/01/15 12:08:50;;;;;;;124.88;81.55;;;10.80;1.00;;;;;;5024286;28;20042;-76
2023/01/15 12:11:39;;;;;;;133.02;85.32;;;10.90;1.00;;;;;;5028397;28;20061;-75
2023/01/15 12:14:39;;;;;;;138.63;90.57;;;11.00;1.00;;;;;;5027713;28;20920;-78
2023/01/15 12:17:29;;;;;;;121.18;80.47;;;11.00;1.00;;;;;;5027494;28;20081;-77
2023/01/15 12:20:08;;;;;;;130.95;83.63;;;11.10;1.00;;;;;;5031596;28;20054;-74
2023/01/15 12:22:49;;;;;;;124.15;80.32;;;11.10;1.00;;;;;;5030572;28;20259;-76
2023/01/15 12:25:37;;;;;;;102.00;65.75;;;11.10;1.00;;;;;;5022995;28;20064;-77
2023/01/15 12:28:12;;;;;;;108.70;68.35;;;11.20;1.00;;;;;;5006921;28;20122;-76
2023/01/15 12:30:48;;;;;;;106.80;66.43;;;11.20;1.00;;;;;;5019208;28;20065;-77
2023/01/15 12:33:27;;;;;;;96.25;60.20;;;11.30;1.00;;;;;;5033626;28;20061;-76
2023/01/15 12:36:00;;;;;;;87.50;55.38;;;11.40;1.00;;;;;;5029148;28;20377;-76
2023/01/15 12:38:41;;;;;;;83.00;55.13;;;11.30;1.00;;;;;;5019974;28;20041;-77
2023/01/15 12:41:13;;;;;;;88.10;52.25;;;11.40;1.00;;;;;;5020915;28;20077;-74
2023/01/15 12:46:34;;;;;;;82.43;49.40;;;11.50;1.00;;;;;;5022121;28;20242;-75
2023/01/15 12:49:10;;;;;;;66.55;44.58;;;11.60;1.00;;;;;;5023122;28;20046;-76
2023/01/15 12:51:42;;;;;;;;;;;11.60;1.00;;;;;;5032300;28;20044;-75
2023/01/15 12:54:15;;;;;;;76.97;43.92;;;11.60;1.00;;;;;;5014448;28;19928;-74
2023/01/15 12:56:54;;;;;;;75.63;48.10;;;11.70;1.00;;;;;;5013573;28;20106;-76
2023/01/15 12:59:28;;;;;;;72.57;43.67;;;11.70;1.00;;;;;;5013263;28;20045;-74
2023/01/15 13:02:11;;;;;;;66.63;43.22;;;11.70;1.00;;;;;;5009963;28;20044;-77
2023/01/15 13:04:48;;;;;;;66.15;42.25;;;11.70;1.00;;;;;;5012005;28;20044;-78
2023/01/15 13:07:24;;;;;;;67.00;41.75;;;11.80;1.00;;;;;;5012477;28;20482;-74
2023/01/15 13:09:55;;;;;;;;;;;11.80;1.00;;;;;;5012368;28;20520;-76
2023/01/15 13:12:23;;;;;;;61.40;38.67;;;11.80;1.00;;;;;;5012827;28;19947;-76
2023/01/15 13:14:50;;;;;;;74.30;42.13;;;11.90;1.00;;;;;;5013113;28;20042;-76
2023/01/15 13:17:29;;;;;;;67.60;43.75;;;11.90;1.00;;;;;;5014950;28;20049;-78
2023/01/15 13:20:18;;;;;;;72.78;44.33;;;11.90;1.00;;;;;;5017181;28;20052;-75
2023/01/15 13:22:54;;;;;;;69.97;44.15;;;11.90;1.00;;;;;;5013459;28;20108;-77
2023/01/15 13:25:48;;;;;;;70.60;46.75;;;11.90;1.00;;;;;;5012642;28;20046;-78
2023/01/15 13:28:39;;;;;;;72.10;44.92;;;11.80;1.00;;;;;;5013390;28;20049;-76
2023/01/15 13:31:22;;;;;;;78.97;48.55;;;11.80;1.00;;;;;;4995147;28;20406;-77
2023/01/15 13:33:54;;;;;;;83.93;50.08;;;11.80;1.00;;;;;;5012015;28;20509;-77
2023/01/15 13:36:28;;;;;;;80.20;48.95;;;11.80;1.00;;;;;;5013188;28;20056;-78
2023/01/15 13:38:58;;;;;;;78.07;49.80;;;11.80;1.00;;;;;;5014483;28;20053;-77